Time,TemperatureF,DewpointF,PressureIn,WindDirection,WindDirectionDegrees,WindSpeedMPH,WindSpeedGustMPH,Humidity,HourlyPrecipIn,Conditions,Clouds,dailyrainin,SoftwareType,DateUTC
2013-06-24 00:01:00,69.3,65.2,30.03,North,0,0.0,0.0,87,0.00,,,0.00,WUHU21623XXSP,2013-06-24 05:01:00,
2013-06-24 00:06:00,69.3,65.2,30.02,North,0,0.0,0.0,87,0.00,,,0.00,WUHU21623XXSP,2013-06-24 05:06:00,
2013-06-24 00:11:00,69.1,65.3,30.02,North,0,0.0,0.0,88,0.00,,,0.00,WUHU21623XXSP,2013-06-24 05:11:00,
2013-06-24 00:16:00,69.1,65.0,30.02,North,0,0.0,0.0,87,0.00,,,0.00,WUHU21623XXSP,2013-06-24 05:16:00,
2013-06-24 00:21:00,69.1,65.3,30.02,North,0,0.0,0.0,88,0.00,,,0.00,WUHU21623XXSP,2013-06-24 05:21:00,
2013-06-24 00:26:00,68.9,65.3,30.02,North,0,0.0,0.0,88,0.00,,,0.00,WUHU21623XXSP,2013-06-24 05:26:00,
2013-06-24 00:31:00,68.9,65.2,30.02,North,0,0.0,0.0,88,0.00,,,0.00,WUHU21623XXSP,2013-06-24 05:31:00,
2013-06-24 00:36:00,68.9,65.2,30.02,North,0,0.0,0.0,88,0.00,,,0.00,WUHU21623XXSP,2013-06-24 05:36:00,
2013-06-24 00:41:00,68.9,65.2,30.02,North,0,0.0,0.0,88,0.00,,,0.00,WUHU21623XXSP,2013-06-24 05:41:00,
2013-06-24 00:46:00,68.9,65.2,30.02,North,0,0.0,0.0,88,0.00,,,0.00,WUHU21623XXSP,2013-06-24 05:46:00,
2013-06-24 00:51:00,69.1,65.3,30.02,North,0,0.0,0.0,88,0.00,,,0.00,WUHU21623XXSP,2013-06-24 05:51:00,
2013-06-24 00:57:00,69.1,65.3,30.02,North,0,0.0,0.0,88,0.00,,,0.00,WUHU21623XXSP,2013-06-24 05:57:00,
2013-06-24 01:02:00,69.3,65.5,30.02,North,0,0.0,0.0,88,0.00,,,0.00,WUHU21623XXSP,2013-06-24 06:02:00,
2013-06-24 01:07:00,69.1,65.0,30.02,North,0,0.0,0.0,87,0.00,,,0.00,WUHU21623XXSP,2013-06-24 06:07:00,
2013-06-24 01:12:00,69.1,65.0,30.02,North,0,0.0,0.0,87,0.00,,,0.00,WUHU21623XXSP,2013-06-24 06:12:00,
2013-06-24 01:17:00,69.1,65.0,30.02,North,0,0.0,0.0,87,0.00,,,0.00,WUHU21623XXSP,2013-06-24 06:17:00,
2013-06-24 01:22:00,68.9,64.8,30.02,North,0,0.0,0.0,87,0.00,,,0.00,WUHU21623XXSP,2013-06-24 06:22:00,
2013-06-24 01:28:00,68.9,64.8,30.02,North,0,0.0,0.0,87,0.00,,,0.00,WUHU21623XXSP,2013-06-24 06:28:00,
2013-06-24 01:33:00,68.9,64.8,30.02,North,0,0.0,0.0,87,0.00,,,0.00,WUHU21623XXSP,2013-06-24 06:33:00,
2013-06-24 01:38:00,68.7,64.8,30.02,North,0,0.0,0.0,87,0.00,,,0.00,WUHU21623XXSP,2013-06-24 06:38:00,
2013-06-24 01:43:00,68.7,64.7,30.02,North,0,0.0,0.0,87,0.00,,,0.00,WUHU21623XXSP,2013-06-24 06:43:00,
2013-06-24 01:48:00,68.7,64.7,30.02,North,0,0.0,0.0,87,0.00,,,0.00,WUHU21623XXSP,2013-06-24 06:48:00,
2013-06-24 01:53:00,68.7,64.7,30.02,North,0,0.0,0.0,87,0.00,,,0.00,WUHU21623XXSP,2013-06-24 06:53:00,
2013-06-24 01:59:00,68.7,64.7,30.01,North,0,0.0,0.0,87,0.00,,,0.00,WUHU21623XXSP,2013-06-24 06:59:00,
2013-06-24 02:04:00,68.7,64.7,30.02,North,0,0.0,0.0,87,0.00,,,0.00,WUHU21623XXSP,2013-06-24 07:04:00,
2013-06-24 02:09:00,68.9,64.8,30.01,North,0,0.0,0.0,87,0.00,,,0.00,WUHU21623XXSP,2013-06-24 07:09:00,
2013-06-24 02:14:00,69.1,65.0,30.02,North,0,0.0,0.0,87,0.00,,,0.00,WUHU21623XXSP,2013-06-24 07:14:00,
2013-06-24 02:19:00,69.1,65.0,30.02,North,0,0.0,0.0,87,0.00,,,0.00,WUHU21623XXSP,2013-06-24 07:19:00,
2013-06-24 02:24:00,69.1,65.0,30.01,North,0,0.0,0.0,87,0.00,,,0.00,WUHU21623XXSP,2013-06-24 07:24:00,
2013-06-24 02:29:00,69.1,65.0,30.01,North,0,0.0,0.0,87,0.00,,,0.00,WUHU21623XXSP,2013-06-24 07:29:00,
2013-06-24 02:34:00,69.1,65.0,30.01,North,0,0.0,0.0,87,0.00,,,0.00,WUHU21623XXSP,2013-06-24 07:34:00,
2013-06-24 02:39:00,69.1,65.0,30.01,North,0,0.0,0.0,87,0.00,,,0.00,WUHU21623XXSP,2013-06-24 07:39:00,
2013-06-24 02:44:00,69.1,65.0,30.01,North,0,0.0,0.0,87,0.00,,,0.00,WUHU21623XXSP,2013-06-24 07:44:00,
2013-06-24 02:50:00,68.9,64.8,30.00,North,0,0.0,0.0,87,0.00,,,0.00,WUHU21623XXSP,2013-06-24 07:50:00,
2013-06-24 02:55:00,68.9,64.8,30.01,North,0,0.0,0.0,87,0.00,,,0.00,WUHU21623XXSP,2013-06-24 07:55:00,
2013-06-24 03:00:00,68.9,65.0,30.01,North,0,0.0,0.0,87,0.00,,,0.00,WUHU21623XXSP,2013-06-24 08:00:00,
2013-06-24 03:05:00,69.1,65.0,30.00,North,0,0.0,0.0,87,0.00,,,0.00,WUHU21623XXSP,2013-06-24 08:05:00,
2013-06-24 03:10:00,68.9,64.8,30.01,North,0,0.0,0.0,87,0.00,,,0.00,WUHU21623XXSP,2013-06-24 08:10:00,
2013-06-24 03:15:00,69.1,64.8,30.00,North,0,0.0,0.0,87,0.00,,,0.00,WUHU21623XXSP,2013-06-24 08:15:00,
2013-06-24 03:21:00,68.9,64.8,30.01,North,0,0.0,0.0,87,0.00,,,0.00,WUHU21623XXSP,2013-06-24 08:21:00,
2013-06-24 03:26:00,69.1,65.0,30.01,North,0,0.0,0.0,87,0.00,,,0.00,WUHU21623XXSP,2013-06-24 08:26:00,
2013-06-24 03:31:00,69.1,65.0,30.00,North,0,0.0,0.0,87,0.00,,,0.00,WUHU21623XXSP,2013-06-24 08:31:00,
2013-06-24 03:36:00,69.3,65.5,30.00,North,0,0.0,0.0,88,0.00,,,0.00,WUHU21623XXSP,2013-06-24 08:36:00,
2013-06-24 03:41:00,69.3,65.5,30.00,North,0,0.0,0.0,88,0.00,,,0.00,WUHU21623XXSP,2013-06-24 08:41:00,
2013-06-24 13:06:00,88.5,74.3,30.02,North,0,0.0,0.0,63,0.00,,,0.00,WUHU21623XXSP,2013-06-24 18:06:00,
2013-06-24 13:11:00,88.7,74.5,30.02,North,0,0.0,0.0,63,0.00,,,0.00,WUHU21623XXSP,2013-06-24 18:11:00,
2013-06-24 13:16:00,88.5,73.9,30.02,North,0,0.0,0.0,62,0.00,,,0.00,WUHU21623XXSP,2013-06-24 18:16:00,
2013-06-24 13:21:00,88.5,73.9,30.02,North,0,0.0,0.0,62,0.00,,,0.00,WUHU21623XXSP,2013-06-24 18:21:00,
2013-06-24 13:26:00,88.7,73.9,30.02,North,0,0.0,0.0,62,0.00,,,0.00,WUHU21623XXSP,2013-06-24 18:26:00,
2013-06-24 13:31:00,89.1,74.4,30.02,North,0,0.0,0.0,62,0.00,,,0.00,WUHU21623XXSP,2013-06-24 18:31:00,
2013-06-24 13:36:00,88.9,73.7,30.02,North,0,0.0,0.0,61,0.00,,,0.00,WUHU21623XXSP,2013-06-24 18:36:00,
2013-06-24 13:41:00,88.5,73.4,30.02,North,0,0.0,0.0,61,0.00,,,0.00,WUHU21623XXSP,2013-06-24 18:41:00,
2013-06-24 13:46:00,88.3,73.3,30.02,North,0,0.0,0.0,61,0.00,,,0.00,WUHU21623XXSP,2013-06-24 18:46:00,
2013-06-24 13:51:00,88.3,73.3,30.01,North,0,0.0,0.0,61,0.00,,,0.00,WUHU21623XXSP,2013-06-24 18:51:00,
2013-06-24 13:56:00,88.3,73.3,30.01,North,0,0.0,0.0,61,0.00,,,0.00,WUHU21623XXSP,2013-06-24 18:56:00,
2013-06-24 14:01:00,88.7,73.6,30.02,North,0,0.0,0.0,61,0.00,,,0.00,WUHU21623XXSP,2013-06-24 19:01:00,
2013-06-24 14:07:00,89.2,74.1,30.02,North,0,0.0,0.0,61,0.00,,,0.00,WUHU21623XXSP,2013-06-24 19:07:00,
2013-06-24 14:12:00,89.4,73.8,30.02,North,0,0.0,0.0,60,0.00,,,0.00,WUHU21623XXSP,2013-06-24 19:12:00,
2013-06-24 23:20:00,81.3,71.0,29.94,North,0,0.0,0.0,71,0.00,,,0.00,WUHU21623XXSP,2013-06-25 04:20:00,
2013-06-24 23:25:00,81.3,71.0,29.94,North,0,0.0,0.0,71,0.00,,,0.00,WUHU21623XXSP,2013-06-25 04:25:00,
2013-06-24 23:30:00,81.1,70.9,29.94,North,0,0.0,0.0,71,0.00,,,0.00,WUHU21623XXSP,2013-06-25 04:30:00,
2013-06-24 23:33:00,81.1,70.9,29.94,North,0,0.0,0.0,71,0.00,,,0.00,WUHU21623XXSP,2013-06-25 04:33:00,
2013-06-24 23:38:00,81.0,70.7,29.95,North,0,0.0,0.0,71,0.00,,,0.00,WUHU21623XXSP,2013-06-25 04:38:00,
2013-06-24 23:40:00,81.0,70.7,29.94,North,0,0.0,0.0,71,0.00,,,0.00,WUHU21623XXSP,2013-06-25 04:40:00,
2013-06-24 23:45:00,80.8,70.7,29.95,North,0,0.0,0.0,71,0.00,,,0.00,WUHU21623XXSP,2013-06-25 04:45:00,
2013-06-24 23:50:00,81.0,70.5,29.96,North,0,0.0,0.0,71,0.00,,,0.00,WUHU21623XXSP,2013-06-25 04:50:00,
2013-06-24 23:55:00,81.0,70.7,29.96,North,0,0.0,0.0,71,0.00,,,0.00,WUHU21623XXSP,2013-06-25 04:55:00,